Time;durP1;ratioP1;P1;durP2;ratioP2;P2;SDS_P1;SDS_P2;PMS_P1;PMS_P2;Temp;Humidity;BMP_temperature;BMP_pressure;BME280_temperature;BME280_humidity;BME280_pressure;Samples;Min_cycle;Max_cycle;Signal;HPM_P1;HPM_P2
2024/01/17 00:01:58;;;;;;;32.03;30.33;;;;;;;;;;5032230;28;20947;-56
2024/01/17 00:04:24;;;;;;;37.92;35.90;;;;;;;;;;5034029;28;20041;-57
2024/01/17 00:06:51;;;;;;;35.08;33.17;;;;;;;;;;5033489;28;20048;-58
2024/01/17 00:09:16;;;;;;;36.53;34.35;;;;;;;;;;5029526;28;20072;-57
2024/01/17 00:11:44;;;;;;;32.47;30.77;;;;;;;;;;5030190;28;20071;-58
2024/01/17 00:14:10;;;;;;;35.58;33.58;;;;;;;;;;5032478;28;20148;-57
2024/01/17 00:16:37;;;;;;;33.00;31.23;;;;;;;;;;5025796;28;20135;-57
2024/01/17 00:19:02;;;;;;;35.03;33.10;;;;;;;;;;5030955;28;20052;-57
2024/01/17 00:21:28;;;;;;;35.08;33.05;;;;;;;;;;5033343;28;20037;-56
2024/01/17 00:23:53;;;;;;;35.25;33.45;;;;;;;;;;5030437;28;20120;-57
2024/01/17 00:26:19;;;;;;;37.00;35.08;;;;;;;;;;5033842;28;20065;-57
2024/01/17 00:28:44;;;;;;;34.10;32.20;;;;;;;;;;5032521;28;20033;-56
2024/01/17 00:31:09;;;;;;;32.58;30.60;;;;;;;;;;5034173;28;20033;-57
2024/01/17 00:33:35;;;;;;;31.80;30.05;;;;;;;;;;5031936;28;20069;-57
2024/01/17 00:36:01;;;;;;;31.80;30.10;;;;;;;;;;5034266;28;20143;-57
2024/01/17 00:38:26;;;;;;;34.13;32.22;;;;;;;;;;5031040;28;20037;-55
2024/01/17 00:40:51;;;;;;;31.52;29.83;;;;;;;;;;5032330;28;20037;-57
2024/01/17 00:43:17;;;;;;;34.35;32.15;;;;;;;;;;5033415;28;20032;-56
2024/01/17 00:45:43;;;;;;;34.28;31.83;;;;;;;;;;5030840;28;20300;-55
2024/01/17 00:48:08;;;;;;;33.97;32.13;;;;;;;;;;5029316;28;20249;-55
2024/01/17 00:50:34;;;;;;;33.95;32.15;;;;;;;;;;5033270;28;20035;-55
2024/01/17 00:52:59;;;;;;;35.10;33.17;;;;;;;;;;5033698;28;20037;-55
2024/01/17 00:55:25;;;;;;;33.67;31.92;;;;;;;;;;5032624;28;20155;-54
2024/01/17 00:57:50;;;;;;;31.75;30.05;;;;;;;;;;5030539;28;20037;-53
2024/01/17 01:00:15;;;;;;;34.13;32.00;;;;;;;;;;5034562;28;20439;-54
2024/01/17 01:02:42;;;;;;;31.40;29.60;;;;;;;;;;5033511;28;20026;-54
2024/01/17 01:05:11;;;;;;;32.20;30.50;;;;;;;;;;5032525;28;20413;-55
2024/01/17 01:07:36;;;;;;;32.42;30.17;;;;;;;;;;5031659;28;20036;-55
2024/01/17 01:10:02;;;;;;;35.25;33.13;;;;;;;;;;5035657;28;20039;-56
2024/01/17 01:12:27;;;;;;;30.17;28.58;;;;;;;;;;5031424;28;20024;-56
2024/01/17 01:14:53;;;;;;;35.63;33.70;;;;;;;;;;5033225;28;20317;-56
2024/01/17 01:17:18;;;;;;;31.95;30.25;;;;;;;;;;5031750;28;20025;-56
2024/01/17 01:19:44;;;;;;;32.13;30.40;;;;;;;;;;5031250;28;20639;-55
2024/01/17 01:22:09;;;;;;;33.10;30.55;;;;;;;;;;5031401;28;20033;-55
2024/01/17 01:24:35;;;;;;;30.95;29.15;;;;;;;;;;5032374;28;20406;-55
2024/01/17 01:27:00;;;;;;;34.33;32.53;;;;;;;;;;5030180;28;20051;-54
2024/01/17 01:29:25;;;;;;;35.17;33.28;;;;;;;;;;5032702;28;20045;-57
2024/01/17 01:31:51;;;;;;;35.22;33.28;;;;;;;;;;5032821;28;20029;-56
2024/01/17 01:34:16;;;;;;;34.80;33.00;;;;;;;;;;5031812;28;20078;-57
2024/01/17 01:36:41;;;;;;;37.58;35.17;;;;;;;;;;5028631;28;20061;-56
2024/01/17 01:39:07;;;;;;;31.38;29.45;;;;;;;;;;5032873;28;20045;-55
2024/01/17 01:41:32;;;;;;;35.15;33.03;;;;;;;;;;5030673;28;20049;-56
2024/01/17 01:43:57;;;;;;;32.92;31.02;;;;;;;;;;5034168;28;20095;-55
2024/01/17 01:46:30;;;;;;;37.33;35.15;;;;;;;;;;5033198;28;20040;-55
2024/01/17 01:48:57;;;;;;;35.78;33.78;;;;;;;;;;5031371;28;20135;-56
2024/01/17 01:51:24;;;;;;;34.58;32.50;;;;;;;;;;5033758;28;20048;-56
2024/01/17 01:53:52;;;;;;;33.10;31.30;;;;;;;;;;5029757;28;20025;-56
2024/01/17 01:56:21;;;;;;;34.20;32.35;;;;;;;;;;5031041;28;20548;-56
2024/01/17 01:58:48;;;;;;;31.52;29.67;;;;;;;;;;5031139;28;20578;-55
2024/01/17 02:01:15;;;;;;;30.30;28.60;;;;;;;;;;5030087;28;20048;-55
2024/01/17 02:03:43;;;;;;;31.15;29.45;;;;;;;;;;5030578;28;20452;-54
2024/01/17 02:06:12;;;;;;;31.73;29.92;;;;;;;;;;5029997;28;20048;-54
2024/01/17 02:08:37;;;;;;;29.77;27.73;;;;;;;;;;5028551;28;20029;-56
2024/01/17 02:11:03;;;;;;;31.67;29.75;;;;;;;;;;5030019;28;20644;-55
2024/01/17 02:13:28;;;;;;;28.83;27.20;;;;;;;;;;5029899;28;20030;-55
2024/01/17 02:15:54;;;;;;;28.92;27.35;;;;;;;;;;5032099;28;20060;-56
2024/01/17 02:18:19;;;;;;;31.73;29.88;;;;;;;;;;5029424;28;20030;-56
2024/01/17 02:20:45;;;;;;;29.02;27.42;;;;;;;;;;5031320;28;20091;-55
2024/01/17 02:23:23;;;;;;;29.48;27.75;;;;;;;;;;5030618;28;20494;-56
2024/01/17 02:25:50;;;;;;;28.95;27.35;;;;;;;;;;5031834;28;20033;-55
2024/01/17 02:28:15;;;;;;;31.15;29.38;;;;;;;;;;5031703;28;20033;-54
2024/01/17 02:30:41;;;;;;;28.55;27.05;;;;;;;;;;5032280;28;20045;-56
2024/01/17 02:33:07;;;;;;;29.58;27.90;;;;;;;;;;5028339;28;20071;-54
2024/01/17 02:35:32;;;;;;;33.97;31.88;;;;;;;;;;5030619;28;20386;-53
2024/01/17 02:37:57;;;;;;;32.97;31.13;;;;;;;;;;5027945;28;20362;-55
2024/01/17 02:40:22;;;;;;;37.75;35.38;;;;;;;;;;5031390;28;20033;-53
2024/01/17 02:42:48;;;;;;;31.33;29.52;;;;;;;;;;5029405;28;20029;-54
2024/01/17 02:45:14;;;;;;;31.98;30.23;;;;;;;;;;5031609;28;20033;-56
2024/01/17 02:47:40;;;;;;;31.58;29.80;;;;;;;;;;5029998;28;20086;-57
2024/01/17 02:50:06;;;;;;;34.45;32.55;;;;;;;;;;5030725;28;20087;-55
2024/01/17 02:52:31;;;;;;;39.58;37.42;;;;;;;;;;5035546;28;20051;-55
2024/01/17 02:54:57;;;;;;;33.05;31.35;;;;;;;;;;5036797;28;20037;-54
2024/01/17 02:57:22;;;;;;;39.47;37.25;;;;;;;;;;5035821;28;20033;-55
2024/01/17 02:59:47;;;;;;;36.22;34.22;;;;;;;;;;5030190;28;20614;-55
2024/01/17 03:02:12;;;;;;;40.17;37.78;;;;;;;;;;5034185;28;20033;-55
2024/01/17 03:04:38;;;;;;;40.13;37.92;;;;;;;;;;5030819;28;20112;-56
2024/01/17 03:07:03;;;;;;;39.50;37.40;;;;;;;;;;5034811;28;20048;-54
2024/01/17 03:09:29;;;;;;;40.13;37.83;;;;;;;;;;5036400;28;20067;-54
2024/01/17 03:11:54;;;;;;;37.33;35.33;;;;;;;;;;5034238;28;20502;-55
2024/01/17 03:14:19;;;;;;;40.35;37.55;;;;;;;;;;5032071;28;20415;-54
2024/01/17 03:16:45;;;;;;;41.53;39.25;;;;;;;;;;5033214;28;20033;-54
2024/01/17 03:19:13;;;;;;;41.63;38.60;;;;;;;;;;5035770;28;20029;-55
2024/01/17 03:21:44;;;;;;;39.25;37.10;;;;;;;;;;5033670;28;20229;-56
2024/01/17 03:24:10;;;;;;;38.75;36.65;;;;;;;;;;5034540;28;20041;-56
2024/01/17 03:26:35;;;;;;;42.00;39.78;;;;;;;;;;5037557;28;20463;-55
2024/01/17 03:29:00;;;;;;;39.72;37.63;;;;;;;;;;5037742;28;20032;-56
2024/01/17 03:31:26;;;;;;;40.67;38.40;;;;;;;;;;5037202;28;20021;-56
2024/01/17 03:33:51;;;;;;;39.55;37.42;;;;;;;;;;5032717;28;20038;-54
2024/01/17 03:36:16;;;;;;;38.25;36.25;;;;;;;;;;5034611;28;20056;-56
2024/01/17 03:38:41;;;;;;;43.00;40.22;;;;;;;;;;5034310;28;20344;-56
2024/01/17 03:41:08;;;;;;;39.97;37.85;;;;;;;;;;5033079;28;20417;-57
2024/01/17 03:43:33;;;;;;;40.55;38.40;;;;;;;;;;5031143;28;20033;-55
2024/01/17 03:45:59;;;;;;;39.95;37.85;;;;;;;;;;5033347;28;20345;-56
2024/01/17 03:48:24;;;;;;;35.75;33.67;;;;;;;;;;5036087;28;20071;-55
2024/01/17 03:50:50;;;;;;;36.70;34.75;;;;;;;;;;5033274;28;20075;-52
2024/01/17 03:53:15;;;;;;;36.42;34.53;;;;;;;;;;5036261;28;20181;-54
2024/01/17 03:55:41;;;;;;;36.00;34.10;;;;;;;;;;5033252;28;20037;-56
2024/01/17 03:58:06;;;;;;;38.97;36.58;;;;;;;;;;5035096;28;20024;-54
2024/01/17 04:00:31;;;;;;;35.78;33.88;;;;;;;;;;5032577;28;20103;-55
2024/01/17 04:02:56;;;;;;;39.67;37.33;;;;;;;;;;5034222;28;20033;-56
2024/01/17 04:05:22;;;;;;;36.60;34.67;;;;;;;;;;5033926;28;20029;-55
2024/01/17 04:07:47;;;;;;;38.55;36.38;;;;;;;;;;5038206;28;20562;-56
2024/01/17 04:10:13;;;;;;;39.10;37.00;;;;;;;;;;5032578;28;20426;-57
2024/01/17 04:12:38;;;;;;;36.10;33.60;;;;;;;;;;5012714;28;20029;-54
2024/01/17 04:15:05;;;;;;;37.08;35.13;;;;;;;;;;5034863;28;20111;-54
2024/01/17 04:17:30;;;;;;;38.25;36.25;;;;;;;;;;5033527;28;20080;-56
2024/01/17 04:19:55;;;;;;;41.42;38.95;;;;;;;;;;5034676;28;20053;-54
2024/01/17 04:22:21;;;;;;;36.10;34.10;;;;;;;;;;5033369;28;20048;-54
2024/01/17 04:24:46;;;;;;;41.40;39.13;;;;;;;;;;5035325;28;20033;-53
2024/01/17 04:27:11;;;;;;;40.83;38.63;;;;;;;;;;5034293;28;20098;-56
2024/01/17 04:29:37;;;;;;;40.35;38.03;;;;;;;;;;5036291;28;20022;-56
2024/01/17 04:32:02;;;;;;;41.92;39.38;;;;;;;;;;5025247;28;20064;-56
2024/01/17 04:34:27;;;;;;;40.33;38.17;;;;;;;;;;5032064;28;20045;-55
2024/01/17 04:36:53;;;;;;;39.90;37.75;;;;;;;;;;5032506;28;20474;-56
2024/01/17 04:39:19;;;;;;;41.60;39.20;;;;;;;;;;5034269;28;20072;-55
2024/01/17 04:41:45;;;;;;;43.25;41.05;;;;;;;;;;5032022;28;20498;-54
2024/01/17 04:44:10;;;;;;;38.80;36.50;;;;;;;;;;5030621;28;20025;-55
2024/01/17 04:46:36;;;;;;;37.45;35.45;;;;;;;;;;5028422;28;20033;-56
2024/01/17 04:49:02;;;;;;;36.92;34.72;;;;;;;;;;5031480;28;20040;-57
2024/01/17 04:51:28;;;;;;;35.40;33.53;;;;;;;;;;5032899;28;20068;-52
2024/01/17 04:53:54;;;;;;;36.00;34.05;;;;;;;;;;5029672;28;20033;-54
2024/01/17 04:56:19;;;;;;;39.88;37.67;;;;;;;;;;5031328;28;20422;-56
2024/01/17 04:58:44;;;;;;;38.42;36.42;;;;;;;;;;5032953;28;20052;-56
2024/01/17 05:01:10;;;;;;;38.60;36.25;;;;;;;;;;5028545;28;20116;-55
2024/01/17 05:03:36;;;;;;;34.78;32.85;;;;;;;;;;5031752;28;20041;-55
2024/01/17 05:06:02;;;;;;;36.15;34.25;;;;;;;;;;5033894;28;20383;-56
2024/01/17 05:08:28;;;;;;;31.80;30.08;;;;;;;;;;5034954;28;20115;-55
2024/01/17 05:10:54;;;;;;;33.65;31.75;;;;;;;;;;5031478;28;20025;-54
2024/01/17 05:13:20;;;;;;;32.83;31.13;;;;;;;;;;5033707;28;20051;-56
2024/01/17 05:15:46;;;;;;;35.22;33.22;;;;;;;;;;5033775;28;20071;-55
2024/01/17 05:18:11;;;;;;;35.42;33.28;;;;;;;;;;5032250;28;20068;-55
2024/01/17 05:20:37;;;;;;;33.08;31.23;;;;;;;;;;5034092;28;20041;-52
2024/01/17 05:23:03;;;;;;;33.80;32.03;;;;;;;;;;5032856;28;20069;-56
2024/01/17 05:25:28;;;;;;;35.40;33.20;;;;;;;;;;5028868;28;20068;-56
2024/01/17 05:27:53;;;;;;;33.05;31.30;;;;;;;;;;5032794;28;20036;-57
2024/01/17 05:30:20;;;;;;;37.95;35.95;;;;;;;;;;5035087;28;20438;-57
2024/01/17 05:32:45;;;;;;;31.42;29.77;;;;;;;;;;5033680;28;20048;-57
2024/01/17 05:35:10;;;;;;;35.70;33.58;;;;;;;;;;5030153;28;20060;-58
2024/01/17 05:37:40;;;;;;;33.97;31.92;;;;;;;;;;5036992;28;20124;-58
2024/01/17 05:40:09;;;;;;;33.92;32.08;;;;;;;;;;5032634;28;20037;-57
2024/01/17 05:42:36;;;;;;;34.38;32.42;;;;;;;;;;5033380;28;20052;-58
2024/01/17 05:45:02;;;;;;;34.38;32.38;;;;;;;;;;5031734;28;20391;-58
2024/01/17 05:47:28;;;;;;;35.67;33.67;;;;;;;;;;5032824;28;20552;-57
2024/01/17 05:49:53;;;;;;;37.00;35.03;;;;;;;;;;5032487;28;20049;-58
2024/01/17 05:52:19;;;;;;;37.70;35.60;;;;;;;;;;5031105;28;20032;-57
2024/01/17 05:54:44;;;;;;;33.63;31.83;;;;;;;;;;5033728;28;20440;-58
2024/01/17 05:57:09;;;;;;;35.00;32.80;;;;;;;;;;5030506;28;20044;-58
2024/01/17 05:59:35;;;;;;;34.40;32.50;;;;;;;;;;5033717;28;20044;-58
2024/01/17 06:02:00;;;;;;;34.28;32.35;;;;;;;;;;5029914;28;20048;-58
2024/01/17 06:04:25;;;;;;;36.85;34.67;;;;;;;;;;5030416;28;20036;-57
2024/01/17 06:06:50;;;;;;;31.90;30.20;;;;;;;;;;5032865;28;20037;-58
2024/01/17 06:09:16;;;;;;;33.25;30.52;;;;;;;;;;5029513;28;20065;-58
2024/01/17 06:11:42;;;;;;;34.25;32.03;;;;;;;;;;5030785;28;20099;-59
2024/01/17 06:14:07;;;;;;;32.95;31.08;;;;;;;;;;5031357;28;20044;-59
2024/01/17 06:16:32;;;;;;;31.80;30.10;;;;;;;;;;5031992;28;20060;-59
2024/01/17 06:18:59;;;;;;;34.08;32.17;;;;;;;;;;5028564;28;20080;-59
2024/01/17 06:21:25;;;;;;;33.88;32.08;;;;;;;;;;5034812;28;20462;-59
2024/01/17 06:23:51;;;;;;;34.97;33.08;;;;;;;;;;5033009;28;20025;-59
2024/01/17 06:26:17;;;;;;;31.42;29.70;;;;;;;;;;5032140;28;20358;-59
2024/01/17 06:28:42;;;;;;;33.28;31.35;;;;;;;;;;5034835;28;20029;-59
2024/01/17 06:31:08;;;;;;;33.55;31.67;;;;;;;;;;5029272;28;20062;-59
2024/01/17 06:33:33;;;;;;;32.13;30.17;;;;;;;;;;5030276;28;20030;-59
2024/01/17 06:35:59;;;;;;;37.83;35.55;;;;;;;;;;5028743;28;20792;-59
2024/01/17 06:38:24;;;;;;;36.33;34.38;;;;;;;;;;5037055;28;20366;-59
2024/01/17 06:40:50;;;;;;;37.88;35.58;;;;;;;;;;5031444;28;20029;-59
2024/01/17 06:43:16;;;;;;;40.88;38.63;;;;;;;;;;5030798;28;20461;-59
2024/01/17 06:45:42;;;;;;;37.10;34.65;;;;;;;;;;5030805;28;20041;-59
2024/01/17 06:48:07;;;;;;;37.80;35.80;;;;;;;;;;5031182;28;20025;-59
2024/01/17 06:50:32;;;;;;;40.20;37.90;;;;;;;;;;5030507;28;20079;-59
2024/01/17 06:52:58;;;;;;;39.72;37.60;;;;;;;;;;5021536;28;20414;-59
2024/01/17 06:55:23;;;;;;;38.30;35.90;;;;;;;;;;5029439;28;20057;-59
2024/01/17 06:57:48;;;;;;;37.30;35.30;;;;;;;;;;5030179;28;20087;-59
2024/01/17 07:00:14;;;;;;;37.80;35.80;;;;;;;;;;5030616;28;20068;-59
2024/01/17 07:02:40;;;;;;;36.85;34.85;;;;;;;;;;5028170;28;20053;-59
2024/01/17 07:05:06;;;;;;;39.65;37.35;;;;;;;;;;5029376;28;20100;-59
2024/01/17 07:07:31;;;;;;;38.90;36.80;;;;;;;;;;5020155;28;20060;-59
2024/01/17 07:09:56;;;;;;;39.30;37.20;;;;;;;;;;5029202;28;20034;-59
2024/01/17 07:12:22;;;;;;;39.80;37.63;;;;;;;;;;5030002;28;20037;-59
2024/01/17 07:14:48;;;;;;;43.65;41.35;;;;;;;;;;5030979;28;20049;-59
2024/01/17 07:17:14;;;;;;;42.00;39.70;;;;;;;;;;5028695;28;20068;-59
2024/01/17 07:19:40;;;;;;;43.97;41.72;;;;;;;;;;5026583;28;20049;-59
2024/01/17 07:22:06;;;;;;;47.25;44.65;;;;;;;;;;5030740;28;20029;-59
2024/01/17 07:24:32;;;;;;;43.10;40.83;;;;;;;;;;5027834;28;20478;-58
2024/01/17 07:26:57;;;;;;;45.72;43.33;;;;;;;;;;5029626;28;20075;-59
2024/01/17 07:29:22;;;;;;;47.25;44.80;;;;;;;;;;5030199;28;20044;-59
2024/01/17 07:31:48;;;;;;;52.40;49.33;;;;;;;;;;5032106;28;20048;-59
2024/01/17 07:34:13;;;;;;;51.50;48.70;;;;;;;;;;5029964;28;20029;-59
2024/01/17 07:36:39;;;;;;;50.00;47.10;;;;;;;;;;5034939;28;20873;-59
2024/01/17 07:39:05;;;;;;;48.35;45.85;;;;;;;;;;5028663;28;20040;-59
2024/01/17 07:41:30;;;;;;;46.90;44.40;;;;;;;;;;5036355;28;20907;-59
2024/01/17 07:43:56;;;;;;;50.00;47.22;;;;;;;;;;5033309;28;20046;-59
2024/01/17 07:46:21;;;;;;;47.85;44.83;;;;;;;;;;5035264;28;20127;-59
2024/01/17 07:48:47;;;;;;;51.13;48.05;;;;;;;;;;5033473;28;20197;-59
2024/01/17 07:51:13;;;;;;;46.58;44.10;;;;;;;;;;5032482;28;20037;-58
2024/01/17 07:53:39;;;;;;;45.95;43.45;;;;;;;;;;5031508;28;20175;-59
2024/01/17 07:56:04;;;;;;;48.55;45.78;;;;;;;;;;5032660;28;20126;-59
2024/01/17 07:58:30;;;;;;;50.60;47.80;;;;;;;;;;5035507;28;20057;-59
2024/01/17 08:00:55;;;;;;;48.70;46.10;;;;;;;;;;5032121;28;20041;-59
2024/01/17 08:03:21;;;;;;;47.38;44.78;;;;;;;;;;5030607;28;20045;-59
2024/01/17 08:05:46;;;;;;;47.10;44.45;;;;;;;;;;5031429;28;20084;-60
2024/01/17 08:08:12;;;;;;;46.17;43.78;;;;;;;;;;5030429;28;20482;-59
2024/01/17 08:10:38;;;;;;;46.03;43.58;;;;;;;;;;5030615;28;20179;-58
2024/01/17 08:13:04;;;;;;;48.38;45.88;;;;;;;;;;5031153;28;20256;-59
2024/01/17 08:15:30;;;;;;;56.10;52.22;;;;;;;;;;5035599;28;20048;-59
2024/01/17 08:17:56;;;;;;;52.50;49.58;;;;;;;;;;5033907;28;20091;-60
2024/01/17 08:20:22;;;;;;;53.10;50.30;;;;;;;;;;5034818;28;21965;-59
2024/01/17 08:22:47;;;;;;;51.33;48.70;;;;;;;;;;5036527;28;20064;-60
2024/01/17 08:25:13;;;;;;;54.33;51.28;;;;;;;;;;5033674;28;20037;-59
2024/01/17 08:27:39;;;;;;;53.80;51.03;;;;;;;;;;5034136;28;20083;-59
2024/01/17 08:30:05;;;;;;;50.72;47.92;;;;;;;;;;5034336;28;20486;-60
2024/01/17 08:32:30;;;;;;;51.95;49.22;;;;;;;;;;5032621;28;20167;-59
2024/01/17 08:34:56;;;;;;;56.33;53.33;;;;;;;;;;5030975;28;20120;-59
2024/01/17 08:37:21;;;;;;;54.28;51.45;;;;;;;;;;5034081;28;20041;-59
2024/01/17 08:39:47;;;;;;;55.38;52.47;;;;;;;;;;5031436;28;20716;-59
2024/01/17 08:42:13;;;;;;;60.15;56.85;;;;;;;;;;5033996;28;20755;-59
2024/01/17 08:44:45;;;;;;;54.25;51.00;;;;;;;;;;5033520;28;20041;-59
2024/01/17 08:47:11;;;;;;;54.10;51.00;;;;;;;;;;5029218;28;20044;-59
2024/01/17 08:49:40;;;;;;;56.85;53.63;;;;;;;;;;5035168;28;20029;-60
2024/01/17 08:52:06;;;;;;;54.50;51.70;;;;;;;;;;5035024;28;20120;-60
2024/01/17 08:54:32;;;;;;;54.70;51.67;;;;;;;;;;5036943;28;20049;-60
2024/01/17 08:56:57;;;;;;;56.35;53.38;;;;;;;;;;5029559;28;20051;-59
2024/01/17 08:59:23;;;;;;;99.97;94.63;;;;;;;;;;5032427;28;20072;-59
2024/01/17 09:01:48;;;;;;;80.28;76.20;;;;;;;;;;5037167;28;20068;-59
2024/01/17 09:04:13;;;;;;;60.45;57.25;;;;;;;;;;5029222;28;20124;-59
2024/01/17 09:06:39;;;;;;;79.25;75.00;;;;;;;;;;5034881;28;20596;-59
2024/01/17 09:09:04;;;;;;;57.22;54.22;;;;;;;;;;5033371;28;20528;-60
2024/01/17 09:11:31;;;;;;;79.22;75.25;;;;;;;;;;5033157;28;20575;-60
2024/01/17 09:13:57;;;;;;;54.75;51.95;;;;;;;;;;5031864;28;20044;-60
2024/01/17 09:16:23;;;;;;;57.35;54.22;;;;;;;;;;5034287;28;20049;-60
2024/01/17 09:18:48;;;;;;;56.70;53.80;;;;;;;;;;5034371;28;20094;-60
2024/01/17 09:21:14;;;;;;;55.13;52.28;;;;;;;;;;5032119;28;20103;-60
2024/01/17 09:23:39;;;;;;;54.47;51.72;;;;;;;;;;5034371;28;20029;-60
2024/01/17 09:26:04;;;;;;;50.92;48.20;;;;;;;;;;5031144;28;20061;-60
2024/01/17 09:28:30;;;;;;;45.45;43.08;;;;;;;;;;5033521;28;20440;-60
2024/01/17 09:30:55;;;;;;;50.13;47.38;;;;;;;;;;5032445;28;20036;-60
2024/01/17 09:33:20;;;;;;;51.05;48.33;;;;;;;;;;5031330;28;20044;-60
2024/01/17 09:35:46;;;;;;;50.50;47.45;;;;;;;;;;5033301;28;20494;-60
2024/01/17 09:38:14;;;;;;;45.47;43.13;;;;;;;;;;5032795;28;20070;-61
2024/01/17 09:40:39;;;;;;;43.80;41.50;;;;;;;;;;5032724;28;20037;-61
2024/01/17 09:43:06;;;;;;;43.47;41.17;;;;;;;;;;5035849;28;20756;-60
2024/01/17 09:45:33;;;;;;;43.60;41.20;;;;;;;;;;5030354;28;20089;-60
2024/01/17 09:48:00;;;;;;;44.55;42.22;;;;;;;;;;5032071;28;20033;-62
2024/01/17 09:50:27;;;;;;;45.55;43.15;;;;;;;;;;5028467;28;20034;-61
2024/01/17 09:52:54;;;;;;;57.65;54.45;;;;;;;;;;5031384;28;20043;-61
2024/01/17 09:55:21;;;;;;;56.97;54.05;;;;;;;;;;5033747;28;20120;-62
2024/01/17 09:57:53;;;;;;;58.80;55.45;;;;;;;;;;5031534;28;20043;-60
2024/01/17 10:00:19;;;;;;;52.22;49.42;;;;;;;;;;5032096;28;20184;-60
2024/01/17 10:02:45;;;;;;;55.15;52.25;;;;;;;;;;5029411;28;20712;-60
2024/01/17 10:05:12;;;;;;;51.63;48.85;;;;;;;;;;5030228;28;20060;-60
2024/01/17 10:07:38;;;;;;;50.75;47.95;;;;;;;;;;5030088;28;20063;-60
2024/01/17 10:10:04;;;;;;;58.30;55.20;;;;;;;;;;5032455;28;20455;-60
2024/01/17 10:12:30;;;;;;;63.08;59.63;;;;;;;;;;5031612;28;20020;-60
2024/01/17 10:14:55;;;;;;;70.93;67.22;;;;;;;;;;5032844;28;20035;-60
2024/01/17 10:17:21;;;;;;;63.03;59.78;;;;;;;;;;5031282;28;20450;-60
2024/01/17 10:19:47;;;;;;;66.25;62.75;;;;;;;;;;5031402;28;20025;-60
2024/01/17 10:22:13;;;;;;;61.42;58.22;;;;;;;;;;5029422;28;20383;-62
2024/01/17 10:24:39;;;;;;;61.80;58.60;;;;;;;;;;5028721;28;20034;-62
2024/01/17 10:27:06;;;;;;;61.53;58.33;;;;;;;;;;5032604;28;20124;-60
2024/01/17 10:29:39;;;;;;;65.95;62.53;;;;;;;;;;5034273;28;20032;-63
2024/01/17 10:32:05;;;;;;;70.45;66.75;;;;;;;;;;5026840;28;20095;-61
2024/01/17 10:34:30;;;;;;;68.55;65.03;;;;;;;;;;5030945;28;20061;-62
2024/01/17 10:36:56;;;;;;;69.53;64.97;;;;;;;;;;5031865;28;20151;-61
2024/01/17 10:39:23;;;;;;;64.50;61.15;;;;;;;;;;5030435;28;20367;-61
2024/01/17 10:41:50;;;;;;;64.05;60.67;;;;;;;;;;5029643;28;20112;-61
2024/01/17 10:44:17;;;;;;;64.97;61.13;;;;;;;;;;5032353;28;20037;-62
2024/01/17 10:46:43;;;;;;;65.63;62.22;;;;;;;;;;5030764;28;20094;-61
2024/01/17 10:49:08;;;;;;;63.67;60.22;;;;;;;;;;5033094;28;20721;-61
2024/01/17 10:51:35;;;;;;;57.83;54.85;;;;;;;;;;5028696;28;20034;-62
2024/01/17 10:54:03;;;;;;;50.88;48.28;;;;;;;;;;5032049;28;20080;-61
2024/01/17 10:56:30;;;;;;;56.15;53.20;;;;;;;;;;5028783;28;20037;-60
2024/01/17 10:58:55;;;;;;;50.63;47.85;;;;;;;;;;5032349;28;20056;-60
2024/01/17 11:01:25;;;;;;;50.33;47.22;;;;;;;;;;5030117;28;20431;-59
2024/01/17 11:03:55;;;;;;;49.85;46.95;;;;;;;;;;5029873;28;20040;-54
2024/01/17 11:06:22;;;;;;;48.95;46.30;;;;;;;;;;5034060;28;20051;-61
2024/01/17 11:08:49;;;;;;;52.33;49.40;;;;;;;;;;5031735;28;20037;-56
2024/01/17 11:11:16;;;;;;;52.67;49.83;;;;;;;;;;5031676;28;20048;-56
2024/01/17 11:13:44;;;;;;;58.05;54.90;;;;;;;;;;5037119;28;20029;-61
2024/01/17 11:16:13;;;;;;;56.97;53.97;;;;;;;;;;5036338;28;20131;-56
2024/01/17 11:18:41;;;;;;;63.80;59.97;;;;;;;;;;5035052;28;20032;-61
2024/01/17 11:21:07;;;;;;;64.47;60.67;;;;;;;;;;5034442;28;20033;-61
2024/01/17 11:23:49;;;;;;;66.43;62.92;;;;;;;;;;5032384;28;20044;-51
2024/01/17 11:26:28;;;;;;;64.35;61.03;;;;;;;;;;5036355;28;20056;-62
2024/01/17 11:29:25;;;;;;;67.85;63.95;;;;;;;;;;5028656;28;20034;-52
2024/01/17 11:32:08;;;;;;;65.63;62.13;;;;;;;;;;5034233;28;20111;-55
2024/01/17 11:34:33;;;;;;;64.18;60.63;;;;;;;;;;5033753;28;20497;-55
2024/01/17 11:36:59;;;;;;;65.25;61.17;;;;;;;;;;5029873;28;20033;-56
2024/01/17 11:39:24;;;;;;;67.80;64.13;;;;;;;;;;5033709;28;20033;-61
2024/01/17 11:41:50;;;;;;;66.38;62.72;;;;;;;;;;5030420;28;20029;-57
2024/01/17 11:44:17;;;;;;;68.20;64.63;;;;;;;;;;5029401;28;20395;-60
2024/01/17 11:46:48;;;;;;;64.93;61.15;;;;;;;;;;5029430;28;20132;-55
2024/01/17 11:49:14;;;;;;;66.72;63.05;;;;;;;;;;5030658;28;20072;-56
2024/01/17 11:51:40;;;;;;;63.78;60.47;;;;;;;;;;5031903;28;20485;-55
2024/01/17 11:54:06;;;;;;;67.68;63.97;;;;;;;;;;5033456;28;20359;-54
2024/01/17 11:56:32;;;;;;;64.78;61.33;;;;;;;;;;5033696;28;20125;-50
2024/01/17 11:59:09;;;;;;;56.88;53.63;;;;;;;;;;5033268;28;20048;-55
2024/01/17 12:01:34;;;;;;;59.28;56.17;;;;;;;;;;5034950;28;20021;-53
2024/01/17 12:04:01;;;;;;;61.45;58.05;;;;;;;;;;5031227;28;20037;-55
2024/01/17 12:06:26;;;;;;;62.28;59.00;;;;;;;;;;5033011;28;20044;-59
2024/01/17 12:08:52;;;;;;;61.25;57.85;;;;;;;;;;5032723;28;20732;-58
2024/01/17 12:11:18;;;;;;;56.38;53.38;;;;;;;;;;5031967;28;20036;-58
2024/01/17 12:13:43;;;;;;;56.67;53.67;;;;;;;;;;5031461;28;20031;-59
2024/01/17 12:16:10;;;;;;;56.88;53.60;;;;;;;;;;5032452;28;20655;-59
2024/01/17 12:18:36;;;;;;;57.95;54.63;;;;;;;;;;5032269;28;20037;-59
2024/01/17 12:21:03;;;;;;;58.22;54.85;;;;;;;;;;5032502;28;20044;-59
2024/01/17 12:23:30;;;;;;;57.92;54.95;;;;;;;;;;5031975;28;20047;-59
2024/01/17 12:25:57;;;;;;;64.18;59.30;;;;;;;;;;5032007;28;20033;-59
2024/01/17 12:28:24;;;;;;;59.88;56.42;;;;;;;;;;5032797;28;20029;-59
2024/01/17 12:31:06;;;;;;;56.53;53.63;;;;;;;;;;5030243;28;20162;-59
2024/01/17 12:33:36;;;;;;;57.38;54.28;;;;;;;;;;5031471;28;20039;-59
2024/01/17 12:36:03;;;;;;;54.47;51.57;;;;;;;;;;5032592;28;20076;-59
2024/01/17 12:38:34;;;;;;;55.72;52.53;;;;;;;;;;5013928;28;20552;-59
2024/01/17 12:41:01;;;;;;;57.53;54.58;;;;;;;;;;5031128;28;20072;-59
2024/01/17 12:43:32;;;;;;;62.88;59.38;;;;;;;;;;5031506;28;20066;-59
2024/01/17 12:45:58;;;;;;;55.20;52.30;;;;;;;;;;5031650;28;20094;-59
2024/01/17 12:48:26;;;;;;;66.78;63.33;;;;;;;;;;5031645;28;20036;-60
2024/01/17 12:50:58;;;;;;;71.47;67.72;;;;;;;;;;5031423;28;20782;-60
2024/01/17 12:53:27;;;;;;;73.97;69.95;;;;;;;;;;5031810;28;20041;-61
2024/01/17 12:55:54;;;;;;;84.38;80.15;;;;;;;;;;5028780;28;20037;-60
2024/01/17 12:58:19;;;;;;;92.30;87.63;;;;;;;;;;5031949;28;20203;-59
2024/01/17 13:00:44;;;;;;;95.53;90.72;;;;;;;;;;5029556;28;20044;-60
2024/01/17 13:03:11;;;;;;;103.63;98.38;;;;;;;;;;5030274;28;20075;-60
2024/01/17 13:05:40;;;;;;;99.80;94.53;;;;;;;;;;5032450;28;20052;-59
2024/01/17 13:08:21;;;;;;;100.88;95.60;;;;;;;;;;5032615;28;20072;-60
2024/01/17 13:10:52;;;;;;;85.40;80.95;;;;;;;;;;5029698;28;20459;-60
2024/01/17 13:13:19;;;;;;;82.33;78.03;;;;;;;;;;5031089;28;20635;-60
2024/01/17 13:15:49;;;;;;;76.88;73.00;;;;;;;;;;5029867;28;20037;-60
2024/01/17 13:18:15;;;;;;;75.75;71.88;;;;;;;;;;5031207;28;20036;-60
2024/01/17 13:20:40;;;;;;;72.00;68.22;;;;;;;;;;5027256;28;20032;-60
2024/01/17 13:23:06;;;;;;;74.15;70.35;;;;;;;;;;5029758;28;20144;-60
2024/01/17 13:25:32;;;;;;;77.65;73.70;;;;;;;;;;5032146;28;20060;-60
2024/01/17 13:27:59;;;;;;;83.30;78.93;;;;;;;;;;5033404;28;20082;-60
2024/01/17 13:30:26;;;;;;;76.28;72.32;;;;;;;;;;5031675;28;20481;-60
2024/01/17 13:32:51;;;;;;;76.72;72.85;;;;;;;;;;5030793;28;20036;-60
2024/01/17 13:35:17;;;;;;;78.22;73.97;;;;;;;;;;5033946;28;20029;-60
2024/01/17 13:37:43;;;;;;;75.90;71.95;;;;;;;;;;5034603;28;20779;-60
2024/01/17 13:40:10;;;;;;;80.95;76.82;;;;;;;;;;5030925;28;20076;-60
2024/01/17 13:42:36;;;;;;;77.28;73.32;;;;;;;;;;5030303;28;20045;-60
2024/01/17 13:45:01;;;;;;;88.80;84.25;;;;;;;;;;5030461;28;20044;-60
2024/01/17 13:47:26;;;;;;;84.97;80.57;;;;;;;;;;5028703;28;20044;-58
2024/01/17 13:49:52;;;;;;;98.50;93.32;;;;;;;;;;5030357;28;20052;-59
2024/01/17 13:52:20;;;;;;;101.03;95.85;;;;;;;;;;5034667;28;20044;-59
2024/01/17 13:54:47;;;;;;;99.25;94.25;;;;;;;;;;5030033;28;20064;-60
2024/01/17 13:57:13;;;;;;;84.10;79.88;;;;;;;;;;5032949;28;20064;-59
2024/01/17 13:59:41;;;;;;;86.70;82.38;;;;;;;;;;5036136;28;20449;-58
2024/01/17 14:02:07;;;;;;;91.35;86.72;;;;;;;;;;5029551;28;20091;-59
2024/01/17 14:04:32;;;;;;;97.40;92.43;;;;;;;;;;5025766;28;20037;-59
2024/01/17 14:06:58;;;;;;;92.47;87.80;;;;;;;;;;5029301;28;20038;-59
2024/01/17 14:09:23;;;;;;;79.65;75.60;;;;;;;;;;5030666;28;20037;-59
2024/01/17 14:11:50;;;;;;;88.93;83.90;;;;;;;;;;5031056;28;20039;-59